Time;durP1;ratioP1;P1;durP2;ratioP2;P2;SDS_P1;SDS_P2;PMS_P1;PMS_P2;Temp;Humidity;BMP_temperature;BMP_pressure;BME280_temperature;BME280_humidity;BME280_pressure;Samples;Min_cycle;Max_cycle;Signal;HPM_P1;HPM_P2
2023/02/10 00:00:11;;;;;;;15.88;8.25;;;3.60;82.10;;;;;;5051940;28;20870;-63
2023/02/10 00:02:37;;;;;;;16.88;8.25;;;3.60;82.50;;;;;;5050595;28;20074;-64
2023/02/10 00:05:03;;;;;;;23.08;8.32;;;3.60;82.50;;;;;;5054102;28;20458;-63
2023/02/10 00:07:28;;;;;;;18.80;8.93;;;3.60;82.50;;;;;;5050540;28;20506;-62
2023/02/10 00:09:54;;;;;;;18.10;7.72;;;3.70;82.40;;;;;;5049006;28;20036;-63
2023/02/10 00:12:20;;;;;;;15.65;7.95;;;3.70;82.60;;;;;;5017012;28;20020;-63
2023/02/10 00:14:46;;;;;;;18.60;8.35;;;3.70;82.40;;;;;;5050824;28;20122;-63
2023/02/10 00:17:12;;;;;;;19.33;9.00;;;3.70;82.50;;;;;;5050836;28;20025;-63
2023/02/10 00:19:38;;;;;;;18.05;9.30;;;3.70;82.70;;;;;;5054497;28;20100;-63
2023/02/10 00:22:04;;;;;;;16.67;8.15;;;3.70;82.80;;;;;;5050618;28;20035;-63
2023/02/10 00:24:30;;;;;;;20.42;8.73;;;3.70;82.80;;;;;;5054081;28;20044;-63
2023/02/10 00:26:56;;;;;;;18.77;8.82;;;3.70;82.80;;;;;;5048367;28;20039;-63
2023/02/10 00:29:21;;;;;;;15.30;7.60;;;3.70;82.80;;;;;;5031747;28;20028;-63
2023/02/10 00:31:47;;;;;;;20.67;9.45;;;3.70;82.90;;;;;;5048966;28;20028;-64
2023/02/10 00:34:15;;;;;;;17.23;9.13;;;3.70;83.20;;;;;;5047790;28;20094;-63
2023/02/10 00:36:41;;;;;;;20.55;9.68;;;3.80;83.20;;;;;;5032553;28;20170;-63
2023/02/10 00:39:12;;;;;;;21.40;9.27;;;3.70;82.30;;;;;;5035301;28;20036;-63
2023/02/10 00:41:37;;;;;;;16.17;8.45;;;3.70;82.60;;;;;;5051660;28;20025;-64
2023/02/10 00:44:03;;;;;;;18.08;8.65;;;3.70;82.70;;;;;;5053144;28;20766;-63
2023/02/10 00:46:29;;;;;;;17.95;9.05;;;3.80;82.70;;;;;;5035280;28;20532;-63
2023/02/10 00:48:57;;;;;;;18.13;8.88;;;3.70;82.60;;;;;;5031958;28;20052;-63
2023/02/10 00:51:22;;;;;;;16.30;8.98;;;3.70;82.60;;;;;;5050160;28;20067;-63
2023/02/10 00:53:50;;;;;;;18.70;9.80;;;3.70;82.60;;;;;;5047583;28;20473;-63
2023/02/10 00:56:17;;;;;;;17.20;8.75;;;3.70;82.70;;;;;;5028692;28;20032;-64
2023/02/10 00:58:44;;;;;;;17.70;9.23;;;3.70;83.00;;;;;;5040985;28;20220;-64
2023/02/10 01:01:10;;;;;;;17.92;9.60;;;3.70;83.00;;;;;;5031305;28;20659;-64
2023/02/10 01:03:36;;;;;;;17.17;8.05;;;3.70;82.50;;;;;;5034889;28;20028;-65
2023/02/10 01:06:04;;;;;;;18.83;9.35;;;3.70;82.20;;;;;;5025631;28;20039;-64
2023/02/10 01:08:30;;;;;;;20.27;8.63;;;3.60;81.90;;;;;;5022493;28;20130;-64
2023/02/10 01:11:05;;;;;;;16.98;8.88;;;3.50;82.60;;;;;;5043613;28;20185;-65
2023/02/10 01:13:33;;;;;;;19.45;9.18;;;3.40;82.20;;;;;;5032176;28;20045;-64
2023/02/10 01:15:59;;;;;;;20.10;8.93;;;3.40;82.40;;;;;;5046259;28;20111;-64
2023/02/10 01:18:25;;;;;;;19.40;9.15;;;3.30;82.50;;;;;;5054868;28;20109;-65
2023/02/10 01:20:51;;;;;;;17.83;8.48;;;3.30;82.70;;;;;;5032242;28;20523;-63
2023/02/10 01:23:17;;;;;;;19.90;9.20;;;3.20;82.90;;;;;;5051628;28;20205;-64
2023/02/10 01:25:43;;;;;;;15.05;8.13;;;3.20;83.00;;;;;;5051239;28;20722;-63
2023/02/10 01:28:09;;;;;;;18.05;9.13;;;3.10;83.00;;;;;;5032345;28;20124;-63
2023/02/10 01:30:37;;;;;;;18.02;8.50;;;3.10;82.90;;;;;;5051823;28;20060;-63
2023/02/10 01:33:02;;;;;;;18.13;8.63;;;3.00;83.20;;;;;;5039147;28;20066;-64
2023/02/10 01:35:29;;;;;;;16.08;8.40;;;3.00;83.60;;;;;;5058522;28;20882;-63
2023/02/10 01:37:55;;;;;;;18.92;8.32;;;3.00;83.80;;;;;;5055238;28;20021;-63
2023/02/10 01:40:23;;;;;;;20.80;9.07;;;3.00;84.00;;;;;;5054741;28;20460;-63
2023/02/10 01:42:51;;;;;;;18.27;9.63;;;2.90;84.30;;;;;;5024103;28;20033;-63
2023/02/10 01:45:42;;;;;;;17.35;7.78;;;2.90;84.40;;;;;;5049228;28;20029;-63
2023/02/10 01:48:09;;;;;;;16.38;7.97;;;2.90;84.60;;;;;;5053944;28;20099;-63
2023/02/10 01:50:58;;;;;;;18.20;7.80;;;2.80;84.90;;;;;;5057135;28;20021;-63
2023/02/10 01:53:24;;;;;;;15.50;8.23;;;2.80;85.30;;;;;;5055971;28;20017;-63
2023/02/10 01:55:53;;;;;;;17.25;8.55;;;2.80;85.40;;;;;;5039791;28;20048;-64
2023/02/10 01:58:25;;;;;;;20.05;9.32;;;2.70;85.50;;;;;;5039052;28;20093;-63
2023/02/10 02:00:51;;;;;;;19.90;9.80;;;2.70;85.60;;;;;;5036625;28;20044;-63
2023/02/10 02:03:16;;;;;;;14.23;8.07;;;2.70;85.50;;;;;;5056480;28;20032;-64
2023/02/10 02:05:43;;;;;;;19.75;9.32;;;2.70;85.70;;;;;;5057353;28;20067;-63
2023/02/10 02:08:16;;;;;;;20.88;9.38;;;2.70;86.00;;;;;;5053517;28;20084;-64
2023/02/10 02:10:57;;;;;;;19.73;9.07;;;2.60;86.10;;;;;;5040223;28;20856;-63
2023/02/10 02:14:00;;;;;;;17.35;8.43;;;2.60;86.30;;;;;;5052972;28;20317;-64
2023/02/10 02:16:50;;;;;;;19.13;8.40;;;2.60;86.50;;;;;;5055021;28;20075;-64
2023/02/10 02:19:41;;;;;;;23.23;9.48;;;2.50;86.80;;;;;;5033149;28;20094;-64
2023/02/10 02:22:38;;;;;;;19.10;9.63;;;2.50;87.20;;;;;;5054145;28;20859;-64
2023/02/10 02:25:41;;;;;;;20.98;8.88;;;2.40;87.80;;;;;;5049866;28;20392;-64
2023/02/10 02:28:34;;;;;;;22.05;9.90;;;2.40;88.30;;;;;;5033888;28;20036;-64
2023/02/10 02:31:28;;;;;;;24.30;10.23;;;2.30;88.80;;;;;;5019717;28;20094;-64
2023/02/10 02:34:13;;;;;;;25.92;10.35;;;2.30;89.40;;;;;;5020071;28;20028;-64
2023/02/10 02:37:05;;;;;;;21.73;9.85;;;2.30;89.70;;;;;;5048537;28;20102;-64
2023/02/10 02:39:32;;;;;;;23.00;11.15;;;2.30;90.10;;;;;;5034213;28;20037;-63
2023/02/10 02:42:15;;;;;;;26.08;10.57;;;2.20;90.20;;;;;;5034704;28;20161;-64
2023/02/10 02:44:42;;;;;;;27.58;11.98;;;2.20;90.40;;;;;;5036427;28;20558;-63
2023/02/10 02:47:45;;;;;;;24.95;11.52;;;2.20;90.60;;;;;;5033556;28;20053;-64
2023/02/10 02:50:26;;;;;;;23.13;10.93;;;2.10;90.70;;;;;;5049162;28;20543;-64
2023/02/10 02:53:29;;;;;;;25.30;10.90;;;2.10;91.00;;;;;;5050557;28;20115;-63
2023/02/10 02:56:20;;;;;;;26.65;10.70;;;2.10;91.20;;;;;;5046054;28;20060;-63
2023/02/10 02:58:53;;;;;;;28.58;10.95;;;2.10;91.50;;;;;;5029811;28;20058;-64
2023/02/10 03:01:36;;;;;;;33.72;12.02;;;2.10;91.60;;;;;;5028506;28;20155;-64
2023/02/10 03:04:02;;;;;;;33.85;13.35;;;2.00;91.70;;;;;;5047636;28;20029;-63
2023/02/10 03:06:29;;;;;;;26.52;11.25;;;2.00;91.80;;;;;;5051061;28;20087;-63
2023/02/10 03:08:55;;;;;;;25.85;11.23;;;2.00;91.90;;;;;;5053914;28;20036;-63
2023/02/10 03:11:21;;;;;;;30.27;11.52;;;2.00;92.10;;;;;;5049393;28;20068;-63
2023/02/10 03:13:46;;;;;;;29.02;13.32;;;2.00;92.20;;;;;;5048052;28;20020;-64
2023/02/10 03:16:12;;;;;;;31.52;12.93;;;2.00;92.40;;;;;;5050390;28;20044;-63
2023/02/10 03:18:38;;;;;;;28.08;11.68;;;1.90;92.50;;;;;;5053176;28;20119;-63
2023/02/10 03:21:04;;;;;;;27.33;12.88;;;2.00;92.70;;;;;;5049579;28;20080;-63
2023/02/10 03:23:30;;;;;;;26.48;11.43;;;2.00;92.70;;;;;;5052595;28;20036;-63
2023/02/10 03:25:59;;;;;;;30.63;13.52;;;2.00;92.80;;;;;;5040164;28;20697;-64
2023/02/10 03:28:25;;;;;;;30.13;11.40;;;2.00;92.90;;;;;;5047417;28;20167;-64
2023/02/10 03:30:52;;;;;;;34.90;13.00;;;2.00;92.90;;;;;;5056366;28;20029;-64
2023/02/10 03:33:18;;;;;;;29.98;13.23;;;2.00;93.00;;;;;;5057739;28;20029;-64
2023/02/10 03:35:45;;;;;;;37.08;14.65;;;2.00;93.10;;;;;;5053001;28;20025;-64
2023/02/10 03:38:11;;;;;;;32.20;13.25;;;2.00;93.30;;;;;;5051067;28;20070;-64
2023/02/10 03:40:37;;;;;;;31.52;14.35;;;2.00;93.40;;;;;;5055421;28;20032;-63
2023/02/10 03:43:03;;;;;;;36.33;15.13;;;2.00;93.50;;;;;;5051891;28;20406;-63
2023/02/10 03:45:29;;;;;;;32.42;14.63;;;2.10;93.80;;;;;;5050736;28;20040;-64
2023/02/10 03:47:56;;;;;;;36.40;16.23;;;2.10;94.20;;;;;;5049728;28;20040;-64
2023/02/10 03:50:22;;;;;;;38.00;15.98;;;2.20;94.20;;;;;;5055528;28;20020;-64
2023/02/10 03:52:48;;;;;;;39.92;17.30;;;2.20;94.40;;;;;;5055174;28;20028;-64
2023/02/10 03:55:17;;;;;;;39.88;17.23;;;2.20;94.30;;;;;;5051375;28;20090;-67
2023/02/10 03:57:43;;;;;;;40.15;15.50;;;2.30;94.40;;;;;;5054618;28;20484;-63
2023/02/10 04:00:10;;;;;;;38.40;17.15;;;2.30;94.50;;;;;;5048726;28;20338;-65
2023/02/10 04:02:39;;;;;;;35.83;15.95;;;2.30;94.40;;;;;;5055167;28;20040;-63
2023/02/10 04:05:05;;;;;;;41.78;17.08;;;2.50;94.30;;;;;;5050611;28;20090;-63
2023/02/10 04:07:31;;;;;;;38.90;16.48;;;2.50;94.20;;;;;;5047198;28;20043;-63
2023/02/10 04:09:56;;;;;;;44.58;18.02;;;2.60;94.20;;;;;;5050106;28;20029;-63
2023/02/10 04:12:22;;;;;;;47.63;17.90;;;2.70;94.20;;;;;;5046183;28;20117;-63
2023/02/10 04:14:48;;;;;;;40.13;17.45;;;2.70;94.20;;;;;;5049563;28;20033;-65
2023/02/10 04:17:14;;;;;;;43.38;18.48;;;2.70;94.20;;;;;;5050495;28;20025;-65
2023/02/10 04:19:39;;;;;;;46.55;19.50;;;2.50;94.60;;;;;;5030455;28;20071;-65
2023/02/10 04:22:05;;;;;;;42.42;18.92;;;2.50;94.70;;;;;;5054763;28;20036;-65
2023/02/10 04:24:31;;;;;;;47.75;19.55;;;2.40;95.00;;;;;;5050551;28;20824;-65
2023/02/10 04:26:57;;;;;;;51.38;19.60;;;2.40;95.30;;;;;;5051182;28;20021;-65
2023/02/10 04:29:23;;;;;;;50.92;20.13;;;2.30;95.70;;;;;;5054495;28;20111;-65
2023/02/10 04:31:48;;;;;;;46.80;21.30;;;2.30;96.00;;;;;;5046642;28;20028;-65
2023/02/10 04:34:14;;;;;;;44.65;18.20;;;2.30;96.00;;;;;;5045119;28;20556;-65
2023/02/10 04:36:40;;;;;;;48.42;20.15;;;2.20;96.00;;;;;;5049062;28;20573;-65
2023/02/10 04:39:06;;;;;;;45.83;19.92;;;2.30;96.30;;;;;;5045405;28;20037;-65
2023/02/10 04:41:32;;;;;;;50.25;19.08;;;2.30;96.30;;;;;;5048596;28;20102;-65
2023/02/10 04:43:58;;;;;;;45.58;20.05;;;2.40;96.30;;;;;;5047404;28;20040;-65
2023/02/10 04:46:24;;;;;;;51.75;19.88;;;2.50;96.10;;;;;;5053160;28;20124;-65
2023/02/10 04:48:49;;;;;;;53.13;20.67;;;2.60;96.00;;;;;;5049329;28;20031;-65
2023/02/10 04:51:15;;;;;;;48.47;19.95;;;2.60;96.10;;;;;;5048761;28;20559;-65
2023/02/10 04:53:43;;;;;;;54.70;21.98;;;2.60;96.30;;;;;;5050237;28;20064;-65
2023/02/10 04:56:10;;;;;;;46.00;19.52;;;2.70;95.90;;;;;;5044617;28;20043;-63
2023/02/10 04:58:36;;;;;;;51.63;19.38;;;2.80;95.70;;;;;;5052555;28;20416;-65
2023/02/10 05:01:02;;;;;;;43.63;19.73;;;2.80;95.80;;;;;;5052890;28;20520;-65
2023/02/10 05:03:28;;;;;;;45.60;19.65;;;2.80;95.80;;;;;;5046323;28;20047;-65
2023/02/10 05:05:54;;;;;;;43.78;18.80;;;2.90;95.70;;;;;;5051169;28;20105;-65
2023/02/10 05:08:22;;;;;;;52.03;20.52;;;2.90;95.30;;;;;;5051378;28;20145;-65
2023/02/10 05:10:49;;;;;;;47.88;20.10;;;3.00;95.40;;;;;;5046505;28;20443;-65
2023/02/10 05:13:14;;;;;;;45.65;20.63;;;3.00;95.40;;;;;;5049012;28;20032;-65
2023/02/10 05:15:40;;;;;;;51.17;18.88;;;3.00;95.40;;;;;;5051737;28;20037;-65
2023/02/10 05:18:07;;;;;;;45.75;19.55;;;3.00;95.30;;;;;;5055152;28;20041;-63
2023/02/10 05:20:32;;;;;;;45.05;20.42;;;3.10;95.40;;;;;;5050641;28;20181;-64
2023/02/10 05:22:58;;;;;;;50.22;19.52;;;3.00;95.60;;;;;;5048983;28;20123;-65
2023/02/10 05:25:24;;;;;;;45.88;19.45;;;3.00;95.60;;;;;;5033570;28;20060;-66
2023/02/10 05:27:50;;;;;;;43.28;18.65;;;3.00;95.70;;;;;;5054287;28;20427;-65
2023/02/10 05:30:15;;;;;;;46.60;19.10;;;3.00;95.60;;;;;;5059410;28;20913;-67
2023/02/10 05:32:42;;;;;;;44.30;18.58;;;3.10;95.60;;;;;;5061011;28;20047;-63
2023/02/10 05:35:08;;;;;;;38.38;17.08;;;3.10;95.40;;;;;;5061643;28;20088;-65
2023/02/10 05:37:34;;;;;;;40.95;17.30;;;3.10;95.10;;;;;;5061039;28;20032;-63
2023/02/10 05:40:00;;;;;;;35.92;15.50;;;3.10;95.10;;;;;;5059661;28;20031;-65
2023/02/10 05:42:26;;;;;;;40.13;16.60;;;3.10;94.90;;;;;;5047569;28;20057;-63
2023/02/10 05:44:52;;;;;;;35.22;15.43;;;3.10;94.90;;;;;;5056763;28;20033;-65
2023/02/10 05:47:18;;;;;;;34.88;15.52;;;3.10;94.80;;;;;;5053561;28;20037;-65
2023/02/10 05:49:43;;;;;;;38.65;17.90;;;3.10;94.80;;;;;;5055095;28;20032;-65
2023/02/10 05:52:09;;;;;;;40.85;16.60;;;3.10;94.80;;;;;;5050777;28;20033;-65
2023/02/10 05:54:35;;;;;;;36.95;16.02;;;3.10;94.70;;;;;;5055514;28;20025;-65
2023/02/10 05:57:01;;;;;;;37.88;15.38;;;3.10;94.60;;;;;;5058077;28;20064;-62
2023/02/10 05:59:27;;;;;;;29.10;15.77;;;3.10;94.60;;;;;;5055759;28;20568;-63
2023/02/10 06:01:52;;;;;;;35.83;15.38;;;3.10;94.50;;;;;;5053516;28;20241;-62
2023/02/10 06:04:18;;;;;;;32.95;15.30;;;3.10;94.50;;;;;;5062192;28;20042;-65
2023/02/10 06:06:44;;;;;;;34.80;14.85;;;3.00;94.40;;;;;;5050370;28;20040;-65
2023/02/10 06:09:10;;;;;;;34.50;15.63;;;3.00;94.40;;;;;;5047693;28;20036;-65
2023/02/10 06:11:35;;;;;;;30.45;14.80;;;3.00;94.40;;;;;;5049743;28;20431;-65
2023/02/10 06:14:02;;;;;;;34.80;15.95;;;3.00;94.60;;;;;;5055212;28;20058;-65
2023/02/10 06:16:28;;;;;;;47.15;18.55;;;3.00;94.70;;;;;;5054991;28;20053;-65
2023/02/10 06:18:54;;;;;;;43.72;17.92;;;2.90;94.70;;;;;;5047614;28;20639;-65
2023/02/10 06:21:22;;;;;;;42.13;17.98;;;2.90;94.60;;;;;;5048350;28;20034;-65
2023/02/10 06:23:49;;;;;;;42.33;17.50;;;2.90;94.80;;;;;;5048538;28;20041;-65
2023/02/10 06:26:15;;;;;;;33.42;16.48;;;2.80;94.80;;;;;;5055737;28;20029;-65
2023/02/10 06:28:41;;;;;;;35.67;16.60;;;2.80;95.00;;;;;;5054794;28;20039;-64
2023/02/10 06:31:07;;;;;;;32.53;15.02;;;2.70;95.00;;;;;;5043145;28;20036;-65
2023/02/10 06:33:35;;;;;;;28.50;14.23;;;2.70;95.10;;;;;;5048718;28;20117;-65
2023/02/10 06:36:05;;;;;;;28.85;14.02;;;2.70;95.20;;;;;;5050383;28;20066;-65
2023/02/10 06:38:36;;;;;;;32.42;14.73;;;2.70;95.30;;;;;;5045491;28;20060;-65
2023/02/10 06:41:02;;;;;;;35.25;15.27;;;2.60;95.30;;;;;;5032391;28;20071;-64
2023/02/10 06:43:28;;;;;;;31.23;13.43;;;2.60;95.40;;;;;;5056899;28;20044;-65
2023/02/10 06:45:54;;;;;;;38.42;15.40;;;2.60;95.50;;;;;;5042031;28;20036;-65
2023/02/10 06:48:19;;;;;;;30.17;14.10;;;2.60;95.70;;;;;;5042475;28;20040;-65
2023/02/10 06:50:45;;;;;;;30.17;14.00;;;2.60;95.80;;;;;;5052762;28;20124;-65
2023/02/10 06:53:11;;;;;;;28.75;13.63;;;2.60;95.90;;;;;;5043506;28;20040;-65
2023/02/10 06:55:37;;;;;;;33.42;14.30;;;2.50;96.00;;;;;;5050065;28;20122;-65
2023/02/10 06:58:03;;;;;;;30.70;13.73;;;2.60;96.00;;;;;;5045767;28;20051;-65
2023/02/10 07:00:32;;;;;;;29.92;13.48;;;2.50;96.10;;;;;;5041247;28;20805;-65
2023/02/10 07:02:58;;;;;;;29.55;13.80;;;2.60;96.30;;;;;;5036147;28;20094;-65
2023/02/10 07:05:24;;;;;;;37.20;15.25;;;2.50;96.30;;;;;;5045583;28;20037;-65
2023/02/10 07:07:53;;;;;;;25.65;12.18;;;2.60;96.50;;;;;;5042136;28;20032;-65
2023/02/10 07:10:19;;;;;;;29.55;13.20;;;2.60;96.50;;;;;;5047703;28;20021;-65
2023/02/10 07:12:46;;;;;;;39.10;15.25;;;2.60;96.60;;;;;;5044252;28;20128;-65
2023/02/10 07:15:13;;;;;;;35.78;15.05;;;2.60;96.70;;;;;;5049814;28;20036;-65
2023/02/10 07:17:39;;;;;;;37.47;14.55;;;2.70;97.00;;;;;;5044630;28;20656;-65
2023/02/10 07:20:06;;;;;;;31.63;13.77;;;2.70;96.80;;;;;;5048359;28;20089;-65
2023/02/10 07:22:31;;;;;;;28.15;13.38;;;2.70;96.80;;;;;;5049948;28;20017;-64
2023/02/10 07:24:57;;;;;;;32.35;14.20;;;2.80;96.90;;;;;;5053057;28;20464;-65
2023/02/10 07:27:23;;;;;;;30.33;13.07;;;2.80;96.80;;;;;;5042906;28;20036;-65
2023/02/10 07:29:49;;;;;;;32.58;13.70;;;2.80;96.90;;;;;;5049484;28;20033;-66
2023/02/10 07:32:14;;;;;;;28.25;13.27;;;2.90;96.90;;;;;;5046149;28;20021;-65
2023/02/10 07:34:40;;;;;;;29.55;13.45;;;3.00;96.90;;;;;;5038194;28;20025;-64
2023/02/10 07:37:07;;;;;;;29.65;13.00;;;3.00;96.90;;;;;;5043921;28;20040;-65
2023/02/10 07:39:33;;;;;;;25.98;12.00;;;3.10;96.90;;;;;;5057438;28;20628;-65
2023/02/10 07:41:58;;;;;;;28.80;13.63;;;3.20;96.90;;;;;;5050075;28;20033;-65
2023/02/10 07:44:34;;;;;;;42.13;15.10;;;3.30;96.90;;;;;;5032238;28;20025;-65
2023/02/10 07:46:59;;;;;;;34.78;13.80;;;3.40;96.80;;;;;;5051261;28;20047;-66
2023/02/10 07:49:26;;;;;;;34.33;15.32;;;3.50;96.70;;;;;;5046274;28;20044;-65
2023/02/10 07:51:52;;;;;;;34.08;13.77;;;3.50;96.50;;;;;;5043793;28;20029;-65
2023/02/10 07:54:18;;;;;;;32.17;13.40;;;3.60;96.30;;;;;;5047444;28;20415;-64
2023/02/10 07:56:44;;;;;;;33.75;14.07;;;3.60;96.40;;;;;;5043132;28;20040;-64
2023/02/10 07:59:09;;;;;;;29.10;12.88;;;3.70;96.30;;;;;;5041485;28;20033;-61
2023/02/10 08:01:41;;;;;;;39.17;14.57;;;3.80;96.20;;;;;;5044071;28;20115;-63
2023/02/10 08:04:08;;;;;;;31.67;13.05;;;3.80;96.00;;;;;;5056331;28;20032;-63
2023/02/10 08:06:34;;;;;;;33.08;13.90;;;3.90;95.80;;;;;;5051922;28;20036;-64
2023/02/10 08:09:00;;;;;;;27.65;12.48;;;4.10;95.90;;;;;;5052043;28;20024;-64
2023/02/10 08:11:25;;;;;;;39.92;15.43;;;4.20;95.80;;;;;;5050202;28;20057;-63
2023/02/10 08:13:51;;;;;;;36.50;16.52;;;4.20;95.60;;;;;;5044149;28;20033;-63
2023/02/10 08:16:17;;;;;;;38.60;15.43;;;4.30;95.50;;;;;;5042340;28;20463;-63
2023/02/10 08:18:43;;;;;;;34.58;14.57;;;4.50;95.30;;;;;;5045311;28;20033;-63
2023/02/10 08:21:09;;;;;;;36.40;15.85;;;4.70;95.00;;;;;;5046265;28;20055;-63
2023/02/10 08:23:35;;;;;;;45.47;18.52;;;4.90;94.50;;;;;;5048850;28;20032;-63
2023/02/10 08:26:10;;;;;;;39.20;16.50;;;5.10;94.10;;;;;;5043715;28;20041;-64
2023/02/10 08:28:37;;;;;;;42.88;16.98;;;5.20;93.60;;;;;;5046316;28;20033;-63
2023/02/10 08:31:06;;;;;;;42.95;16.30;;;5.30;93.40;;;;;;5045202;28;20025;-63
2023/02/10 08:33:37;;;;;;;45.22;18.80;;;5.30;93.30;;;;;;5051776;28;20029;-63
2023/02/10 08:36:08;;;;;;;42.90;18.98;;;5.40;93.40;;;;;;5027951;28;20495;-64
2023/02/10 08:38:34;;;;;;;42.95;18.73;;;5.50;93.30;;;;;;5043833;28;20036;-63
2023/02/10 08:41:01;;;;;;;44.33;20.95;;;5.60;93.10;;;;;;5042525;28;20067;-64
2023/02/10 08:43:27;;;;;;;46.00;21.13;;;5.70;92.70;;;;;;5047836;28;20033;-64
2023/02/10 08:45:57;;;;;;;45.00;19.42;;;5.80;92.70;;;;;;5044821;28;20366;-64
2023/02/10 08:48:23;;;;;;;49.38;24.38;;;5.80;92.60;;;;;;5045513;28;20021;-65
2023/02/10 08:50:49;;;;;;;42.20;19.63;;;5.80;92.60;;;;;;5053257;28;20748;-65
2023/02/10 08:53:15;;;;;;;48.58;20.20;;;5.80;92.80;;;;;;5045168;28;20033;-66
2023/02/10 08:55:41;;;;;;;42.72;19.58;;;5.80;92.80;;;;;;5024490;28;20102;-65
2023/02/10 08:58:07;;;;;;;51.75;21.08;;;6.00;92.80;;;;;;5043182;28;20744;-63
2023/02/10 09:00:33;;;;;;;44.38;18.50;;;6.30;92.30;;;;;;5038263;28;20033;-64
2023/02/10 09:02:58;;;;;;;49.80;19.77;;;6.40;91.70;;;;;;5037247;28;20032;-65
2023/02/10 09:05:24;;;;;;;44.42;18.83;;;6.60;91.50;;;;;;5048745;28;20271;-65
2023/02/10 09:07:50;;;;;;;47.90;21.80;;;6.90;91.10;;;;;;5042528;28;20051;-65
2023/02/10 09:10:16;;;;;;;48.58;19.77;;;7.00;90.50;;;;;;5047143;28;20527;-65
2023/02/10 09:12:43;;;;;;;45.92;17.50;;;7.10;90.30;;;;;;5038988;28;20048;-66
2023/02/10 09:15:09;;;;;;;52.70;20.67;;;7.10;89.20;;;;;;5054755;28;20032;-66
2023/02/10 09:17:35;;;;;;;45.50;18.63;;;6.90;90.20;;;;;;5045030;28;20028;-66
2023/02/10 09:20:01;;;;;;;41.97;18.02;;;6.70;90.70;;;;;;5045656;28;20028;-66
2023/02/10 09:22:27;;;;;;;49.88;18.67;;;6.70;90.80;;;;;;5050684;28;20056;-66
2023/02/10 09:24:53;;;;;;;48.38;20.73;;;6.60;91.00;;;;;;5043151;28;20234;-64
2023/02/10 09:27:21;;;;;;;39.95;17.98;;;6.50;91.20;;;;;;5041295;28;20037;-65
2023/02/10 09:29:47;;;;;;;56.22;20.63;;;6.50;91.20;;;;;;5038071;28;20640;-65
2023/02/10 09:32:13;;;;;;;49.70;19.55;;;6.60;91.10;;;;;;5050557;28;20040;-66
2023/02/10 09:34:39;;;;;;;50.28;17.92;;;6.70;91.10;;;;;;5048536;28;20036;-65
2023/02/10 09:37:06;;;;;;;45.42;19.30;;;6.70;91.00;;;;;;5041687;28;20037;-65
2023/02/10 09:39:32;;;;;;;39.80;17.90;;;6.80;90.90;;;;;;5039219;28;20048;-65
2023/02/10 09:42:30;;;;;;;51.78;19.42;;;6.70;91.00;;;;;;5044563;28;20029;-66
2023/02/10 09:45:02;;;;;;;41.13;18.80;;;6.70;91.20;;;;;;5025487;28;20048;-67
2023/02/10 09:48:00;;;;;;;41.72;16.88;;;6.60;91.30;;;;;;5030345;28;20474;-65
2023/02/10 09:50:40;;;;;;;40.80;17.17;;;6.70;91.20;;;;;;5049407;28;20060;-65
2023/02/10 09:53:17;;;;;;;43.22;17.17;;;6.70;91.10;;;;;;5050291;28;20075;-65
2023/02/10 09:56:04;;;;;;;40.70;16.77;;;6.60;91.10;;;;;;5049960;28;20039;-65
2023/02/10 09:58:44;;;;;;;43.40;17.00;;;6.60;91.20;;;;;;5044748;28;20037;-65
2023/02/10 10:01:28;;;;;;;40.42;17.45;;;6.70;91.20;;;;;;5043230;28;20146;-66
2023/02/10 10:04:06;;;;;;;46.05;17.90;;;6.70;91.10;;;;;;5039408;28;20046;-65
2023/02/10 10:06:35;;;;;;;55.97;20.20;;;6.70;91.10;;;;;;5042982;28;20039;-65
2023/02/10 10:09:07;;;;;;;47.78;18.77;;;6.70;91.20;;;;;;5046155;28;20075;-65
2023/02/10 10:11:33;;;;;;;45.00;17.40;;;6.80;91.40;;;;;;5044276;28;20026;-65
2023/02/10 10:14:00;;;;;;;42.95;17.58;;;6.80;91.40;;;;;;5051977;28;20031;-65
2023/02/10 10:16:48;;;;;;;48.65;19.27;;;6.90;91.30;;;;;;5051766;28;20118;-68
2023/02/10 10:19:51;;;;;;;42.72;18.95;;;7.00;90.90;;;;;;5044701;28;20033;-65
2023/02/10 10:22:41;;;;;;;48.47;21.65;;;7.00;91.10;;;;;;5040629;28;20033;-65
2023/02/10 10:25:19;;;;;;;47.42;18.08;;;6.70;91.60;;;;;;5040696;28;20363;-65
2023/02/10 10:27:53;;;;;;;44.22;19.52;;;6.80;91.80;;;;;;5041010;28;20063;-65
2023/02/10 10:30:45;;;;;;;49.72;19.52;;;6.90;91.70;;;;;;5054568;28;20029;-65
2023/02/10 10:33:20;;;;;;;41.75;17.80;;;7.00;91.20;;;;;;5049545;28;20049;-65
2023/02/10 10:35:46;;;;;;;57.25;20.50;;;6.90;91.30;;;;;;5051832;28;20029;-65
2023/02/10 10:38:24;;;;;;;50.28;19.40;;;7.00;91.40;;;;;;5047745;28;20055;-65
2023/02/10 10:40:54;;;;;;;50.95;20.08;;;7.00;91.10;;;;;;5047568;28;20041;-64
2023/02/10 10:43:26;;;;;;;47.45;19.20;;;6.90;91.30;;;;;;5047776;28;20021;-64
2023/02/10 10:46:05;;;;;;;44.08;17.88;;;6.80;91.20;;;;;;5049347;28;20048;-71
2023/02/10 10:48:32;;;;;;;47.50;17.38;;;7.00;91.20;;;;;;5048581;28;20541;-71
2023/02/10 10:51:02;;;;;;;47.53;20.50;;;7.10;91.10;;;;;;5047871;28;20030;-71
2023/02/10 10:53:38;;;;;;;47.00;20.27;;;7.10;90.70;;;;;;5039755;28;20028;-64
2023/02/10 10:56:11;;;;;;;50.33;17.73;;;7.00;91.30;;;;;;5042787;28;20033;-64
2023/02/10 10:58:44;;;;;;;46.65;18.83;;;7.10;91.20;;;;;;5043933;28;20037;-64
2023/02/10 11:01:13;;;;;;;44.35;18.90;;;7.30;90.80;;;;;;5047701;28;20043;-65
2023/02/10 11:03:39;;;;;;;45.60;19.63;;;7.80;90.00;;;;;;5053612;28;20043;-65
2023/02/10 11:06:16;;;;;;;45.90;18.80;;;8.20;89.00;;;;;;5047352;28;20036;-65
2023/02/10 11:08:51;;;;;;;42.00;18.42;;;8.80;85.40;;;;;;5043272;28;20025;-64
2023/02/10 11:11:17;;;;;;;41.13;19.67;;;8.90;83.40;;;;;;5045124;28;20075;-65
2023/02/10 11:13:53;;;;;;;52.22;19.52;;;8.60;84.40;;;;;;5052013;28;21112;-65
2023/02/10 11:16:20;;;;;;;45.67;20.17;;;8.20;86.20;;;;;;5046328;28;20052;-66
2023/02/10 11:18:57;;;;;;;38.17;16.77;;;8.20;86.60;;;;;;5046396;28;20044;-65
2023/02/10 11:21:38;;;;;;;52.60;20.65;;;8.40;85.60;;;;;;5048221;28;20532;-65
2023/02/10 11:24:21;;;;;;;49.80;18.63;;;8.40;84.90;;;;;;5033452;28;20033;-65
2023/02/10 11:27:02;;;;;;;48.17;17.65;;;8.20;85.50;;;;;;5046616;28;20536;-66
2023/02/10 11:29:34;;;;;;;42.55;18.60;;;8.30;86.30;;;;;;5037000;28;20049;-65
2023/02/10 11:32:00;;;;;;;45.53;20.63;;;8.30;87.10;;;;;;5044733;28;20094;-65
2023/02/10 11:34:29;;;;;;;51.17;19.77;;;8.10;86.60;;;;;;5042208;28;20260;-65
2023/02/10 11:36:57;;;;;;;46.00;18.60;;;7.90;87.10;;;;;;5049392;28;20479;-65
2023/02/10 11:39:28;;;;;;;45.28;18.58;;;7.80;89.00;;;;;;5045229;28;20470;-67
2023/02/10 11:41:54;;;;;;;43.47;17.83;;;7.70;90.20;;;;;;5051465;28;20048;-66
2023/02/10 11:44:28;;;;;;;40.65;17.33;;;7.90;90.30;;;;;;5047041;28;20071;-66
2023/02/10 11:47:11;;;;;;;36.28;16.88;;;8.20;88.30;;;;;;5042138;28;20029;-65
2023/02/10 11:49:44;;;;;;;40.20;16.05;;;8.10;87.10;;;;;;5046361;28;20146;-65
2023/02/10 11:52:11;;;;;;;36.88;17.10;;;8.30;86.80;;;;;;5046525;28;20679;-65
2023/02/10 11:54:38;;;;;;;35.60;16.05;;;8.30;86.30;;;;;;5049714;28;20032;-69
2023/02/10 12:00:10;;;;;;;41.08;15.55;;;8.30;85.80;;;;;;5049316;28;20036;-65
2023/02/10 12:02:55;;;;;;;34.70;16.20;;;8.30;86.10;;;;;;5047315;28;20465;-65
2023/02/10 12:05:24;;;;;;;29.65;13.85;;;8.50;86.20;;;;;;5048021;28;20045;-66
2023/02/10 12:08:14;;;;;;;35.33;14.88;;;8.70;85.90;;;;;;5029100;28;20068;-64
2023/02/10 12:11:09;;;;;;;44.10;16.63;;;8.70;84.40;;;;;;5032240;28;20028;-65
2023/02/10 12:13:44;;;;;;;38.92;16.08;;;8.60;84.80;;;;;;5039150;28;20040;-65
2023/02/10 12:16:35;;;;;;;35.60;14.85;;;8.60;85.20;;;;;;5040714;28;20044;-65
2023/02/10 12:19:13;;;;;;;31.08;13.82;;;8.50;85.20;;;;;;5049028;28;20036;-65
2023/02/10 12:21:54;;;;;;;34.72;14.43;;;8.50;84.70;;;;;;5031566;28;20061;-67
2023/02/10 12:24:23;;;;;;;31.05;14.55;;;8.60;83.90;;;;;;5053964;28;20143;-66
2023/02/10 12:26:59;;;;;;;28.73;13.65;;;8.60;84.50;;;;;;5046253;28;20040;-65
2023/02/10 12:29:50;;;;;;;33.80;14.63;;;8.50;84.50;;;;;;5044232;28;20025;-65
2023/02/10 12:32:35;;;;;;;32.80;14.63;;;8.50;84.90;;;;;;5040165;28;20036;-64
2023/02/10 12:35:01;;;;;;;34.63;15.00;;;8.50;84.70;;;;;;5035766;28;20032;-63
2023/02/10 12:37:36;;;;;;;37.53;15.48;;;8.40;84.80;;;;;;5045744;28;20492;-65
2023/02/10 12:40:35;;;;;;;37.45;14.68;;;8.30;85.20;;;;;;5043425;28;20118;-66
2023/02/10 12:43:38;;;;;;;33.50;14.65;;;8.30;85.60;;;;;;5043265;28;20059;-63
2023/02/10 12:46:25;;;;;;;36.63;13.52;;;8.30;85.20;;;;;;5028981;28;20166;-65
2023/02/10 12:49:10;;;;;;;30.90;14.48;;;8.30;85.30;;;;;;5040628;28;20128;-69
2023/02/10 12:52:12;;;;;;;36.72;14.52;;;8.20;85.70;;;;;;5038329;28;20362;-69
2023/02/10 12:54:53;;;;;;;37.88;15.15;;;8.10;85.90;;;;;;5025705;28;20048;-70
2023/02/10 12:57:28;;;;;;;30.23;13.77;;;8.10;86.40;;;;;;5036571;28;20033;-69